Aviation Digital Data Service (ADDS)

Output produced by METARs form (2123 UTC 16 February 2019)
found at http://www.aviationweather.gov/metar/data/
 
Forecast for: ESGG (GOTEBORG/LANDVET, SE)
Text: TAF ESGG 161730Z 1618/1718 24007KT 8000 OVC006
Forecast period: 1800 UTC 16 February 2019 to 1800 UTC 17 February 2019
Forecast type: FROM: standard forecast or significant change
Winds: from the WSW (240 degrees) at 8 MPH (7 knots; 3.6 m/s)
Visibility: 5 miles (8 km)
Ceiling: 600 feet AGL
Clouds: overcast cloud deck at 600 feet AGL
Weather: no significant weather forecast for this period
Text: TEMPO 1618/1718 2500 BR OVC003
Forecast period: 1800 UTC 16 February 2019 to 1800 UTC 17 February 2019
Forecast type: TEMPORARY: The following changes expected for less than half the time period
Visibility: 1.55 miles (2.49 km)
Ceiling: 300 feet AGL
Clouds: overcast cloud deck at 300 feet AGL
Weather: BR  (mist)